Carlsbad, NM (88220)

1:26 PM MDT on April 26, 2015 (GMT -0600)
KNMCARLS3 | | Change Station
CLOSE
Current Station
Personal Weather Station
Location: Carlsbad, NM
Elevation: 3158 ft
Nearby Weather Stations
Active Advisory: Wind Advisory

Elev 3158 ft 32.43 °N, 104.25 °W | Updated 6 seconds ago

Partly Cloudy
Partly Cloudy
73.4 °F
Feels Like 75 °F
N
13.0
Wind Variable Wind from West
Gusts 28.0 mph

Today
High -- | Low -- °F
--% Chance of Precip.
Yesterday
High -- | Low -- °F
Precip. -- in
6:15 AM 7:34 PM
First Quarter, 58% visible
Pressure 29.53 in
Visibility 10.0 miles
Clouds Scattered Clouds 11000 ft
Heat Index 75 °F
Dew Point 31 °F
Humidity 21%
Rainfall 0.00 in
Snow Depth Not available.
UV 10 out of 12
Pollen 8.10 out of 12
Air Quality Not available.
Flu Activity Local Activity
METAR KCNM 261853Z AUTO 25025G39KT 10SM SCT110 23/M06 A2965 RMK AO2 PK WND 25039/1838 SLP000 T02281056

More Conditions Fewer Conditions

Pressure 29.53 in
Visibility 10.0 miles
Clouds Scattered Clouds 11000 ft
Heat Index 75 °F
Dew Point 31 °F
Humidity 21%
Rainfall 0.00 in
Snow Depth Not available.
UV 10 out of 12
Pollen 8.10 out of 12
Air Quality Not available.
Flu Activity Local Activity
METAR KCNM 261853Z AUTO 25025G39KT 10SM SCT110 23/M06 A2965 RMK AO2 PK WND 25039/1838 SLP000 T02281056

More Conditions Fewer Conditions

The full scope of the disaster following a powerful 7.8-magnitude earthquake in Nepal may not come into view for days, but global charities are already sending emergency aid. Click to see how you can help.

10-Day Weather Forecast

Almanac

Astronomy

Apr. 26, 2015 Rise Set
Actual Time
Civil Twilight
Nautical Twilight
Astronomical Twilight
Moon
Length of Visible Light
Length of Day
Tomorrow will be .
, % of the Moon is Illuminated

Today's Extremes

State Highs State Lows

Community

WunderPhotos

Upload Photos

1,817,097 photos uploaded!

WunderBlogs® & News

Nearby

Air Quality

  Air Quality AQ Index Pollutant
Not available.

Snow Depth

Station Depth Elevation

Earthquake Activity

City Distance Mag. Time & Date
Minimum magnitude displayed is 2.5.

Coastal Water Temperatures

Place Temperature

Stations

Nearby Weather Stations

Station Location Temp. Windchill Dew Point Humidity Wind Precip. Elev Updated Type
                   
Wind Advisory
Statement as of 12:47 PM MDT on April 26, 2015

... Wind Advisory remains in effect until 9 PM CDT /8 PM MDT/ this
evening...

* event... strong wind.

* Timing... this afternoon.

* Wind... southwest 25 to 35 mph with gusts to 50 mph.

* Impacts... motorists should exercise caution while driving in
the Wind Advisory area. Be alert to sudden gusts of wind which
may cause you to lose control of your vehicle. Secure lawn
furniture... garbage cans... or other objects which could be
blown about by the wind.

Precautionary/preparedness actions...

A Wind Advisory means that winds of 35 mph are expected. Winds
this strong can make driving difficult... especially for high
profile vehicles. Use extra caution.